sensor_id;sensor_type;location;lat;lon;timestamp;temperature;humidity
12119;DHT22;6123;48.864;9.200;2023-05-19T00:00:41;11.70;99.90
12119;DHT22;6123;48.864;9.200;2023-05-19T00:03:09;11.60;99.90
12119;DHT22;6123;48.864;9.200;2023-05-19T00:05:38;11.50;99.90
12119;DHT22;6123;48.864;9.200;2023-05-19T00:08:10;11.50;99.90
12119;DHT22;6123;48.864;9.200;2023-05-19T00:10:37;11.50;99.90
12119;DHT22;6123;48.864;9.200;2023-05-19T00:13:03;11.50;99.90
12119;DHT22;6123;48.864;9.200;2023-05-19T00:15:28;11.50;99.90
12119;DHT22;6123;48.864;9.200;2023-05-19T00:17:54;11.40;99.90
12119;DHT22;6123;48.864;9.200;2023-05-19T00:20:20;11.40;99.90
12119;DHT22;6123;48.864;9.200;2023-05-19T00:22:46;11.50;99.90
12119;DHT22;6123;48.864;9.200;2023-05-19T00:25:11;11.50;99.90
12119;DHT22;6123;48.864;9.200;2023-05-19T00:27:37;11.50;99.90
12119;DHT22;6123;48.864;9.200;2023-05-19T00:30:03;11.40;99.90
12119;DHT22;6123;48.864;9.200;2023-05-19T00:32:28;11.30;99.90
12119;DHT22;6123;48.864;9.200;2023-05-19T00:34:54;11.40;99.90
12119;DHT22;6123;48.864;9.200;2023-05-19T00:37:20;11.40;99.90
12119;DHT22;6123;48.864;9.200;2023-05-19T00:39:46;11.40;99.90
12119;DHT22;6123;48.864;9.200;2023-05-19T00:42:11;11.50;99.90
12119;DHT22;6123;48.864;9.200;2023-05-19T00:44:40;11.50;99.90
12119;DHT22;6123;48.864;9.200;2023-05-19T00:47:06;11.50;99.90
12119;DHT22;6123;48.864;9.200;2023-05-19T00:49:32;11.50;99.90
12119;DHT22;6123;48.864;9.200;2023-05-19T00:51:59;11.40;99.90
12119;DHT22;6123;48.864;9.200;2023-05-19T00:54:25;11.30;99.90
12119;DHT22;6123;48.864;9.200;2023-05-19T00:56:53;11.20;99.90
12119;DHT22;6123;48.864;9.200;2023-05-19T00:59:19;11.10;99.90
12119;DHT22;6123;48.864;9.200;2023-05-19T01:01:45;11.20;99.90
12119;DHT22;6123;48.864;9.200;2023-05-19T01:04:15;11.10;99.90
12119;DHT22;6123;48.864;9.200;2023-05-19T01:06:41;11.20;99.90
12119;DHT22;6123;48.864;9.200;2023-05-19T01:09:08;11.00;99.90
12119;DHT22;6123;48.864;9.200;2023-05-19T01:11:33;11.10;99.90
12119;DHT22;6123;48.864;9.200;2023-05-19T01:13:59;11.00;99.90
12119;DHT22;6123;48.864;9.200;2023-05-19T01:16:37;10.90;99.90
12119;DHT22;6123;48.864;9.200;2023-05-19T01:24:38;11.10;99.90
12119;DHT22;6123;48.864;9.200;2023-05-19T01:30:21;11.10;99.90
12119;DHT22;6123;48.864;9.200;2023-05-19T01:32:56;11.10;99.90
12119;DHT22;6123;48.864;9.200;2023-05-19T01:35:24;10.90;99.90
12119;DHT22;6123;48.864;9.200;2023-05-19T01:37:53;11.00;99.90
12119;DHT22;6123;48.864;9.200;2023-05-19T01:40:20;11.20;99.90
12119;DHT22;6123;48.864;9.200;2023-05-19T01:42:48;11.20;99.90
12119;DHT22;6123;48.864;9.200;2023-05-19T01:45:15;11.20;99.90
12119;DHT22;6123;48.864;9.200;2023-05-19T01:47:42;11.20;99.90
12119;DHT22;6123;48.864;9.200;2023-05-19T01:50:08;11.20;99.90
12119;DHT22;6123;48.864;9.200;2023-05-19T01:52:35;11.20;99.90
12119;DHT22;6123;48.864;9.200;2023-05-19T01:55:01;11.30;99.90
12119;DHT22;6123;48.864;9.200;2023-05-19T02:00:40;11.40;99.90
12119;DHT22;6123;48.864;9.200;2023-05-19T02:03:17;11.20;99.90
12119;DHT22;6123;48.864;9.200;2023-05-19T02:11:13;11.00;99.90
12119;DHT22;6123;48.864;9.200;2023-05-19T02:13:42;11.20;99.90
12119;DHT22;6123;48.864;9.200;2023-05-19T02:16:10;11.30;99.90
12119;DHT22;6123;48.864;9.200;2023-05-19T02:18:39;11.40;99.90
12119;DHT22;6123;48.864;9.200;2023-05-19T02:21:04;11.40;99.90
12119;DHT22;6123;48.864;9.200;2023-05-19T02:23:30;11.20;99.90
12119;DHT22;6123;48.864;9.200;2023-05-19T02:25:55;11.30;99.90
12119;DHT22;6123;48.864;9.200;2023-05-19T02:28:21;11.30;99.90
12119;DHT22;6123;48.864;9.200;2023-05-19T02:30:47;11.30;99.90
12119;DHT22;6123;48.864;9.200;2023-05-19T02:33:12;11.40;99.90
12119;DHT22;6123;48.864;9.200;2023-05-19T02:35:38;11.30;99.90
12119;DHT22;6123;48.864;9.200;2023-05-19T02:38:03;11.30;99.90
12119;DHT22;6123;48.864;9.200;2023-05-19T02:40:29;11.30;99.90
12119;DHT22;6123;48.864;9.200;2023-05-19T02:42:54;11.30;99.90
12119;DHT22;6123;48.864;9.200;2023-05-19T02:45:20;11.30;99.90
12119;DHT22;6123;48.864;9.200;2023-05-19T02:47:45;11.40;99.90
12119;DHT22;6123;48.864;9.200;2023-05-19T02:50:11;11.20;99.90
12119;DHT22;6123;48.864;9.200;2023-05-19T02:52:36;11.30;99.90
12119;DHT22;6123;48.864;9.200;2023-05-19T02:55:02;11.20;99.90
12119;DHT22;6123;48.864;9.200;2023-05-19T02:57:28;11.30;99.90
12119;DHT22;6123;48.864;9.200;2023-05-19T02:59:55;11.30;99.90
12119;DHT22;6123;48.864;9.200;2023-05-19T03:02:21;11.30;99.90
12119;DHT22;6123;48.864;9.200;2023-05-19T03:04:47;11.30;99.90
12119;DHT22;6123;48.864;9.200;2023-05-19T03:07:12;11.30;99.90
12119;DHT22;6123;48.864;9.200;2023-05-19T03:09:38;11.30;99.90
12119;DHT22;6123;48.864;9.200;2023-05-19T03:12:04;11.30;99.90
12119;DHT22;6123;48.864;9.200;2023-05-19T03:14:34;11.30;99.90
12119;DHT22;6123;48.864;9.200;2023-05-19T03:17:02;11.30;99.90
12119;DHT22;6123;48.864;9.200;2023-05-19T03:19:27;11.20;99.90
12119;DHT22;6123;48.864;9.200;2023-05-19T03:21:53;11.30;99.90
12119;DHT22;6123;48.864;9.200;2023-05-19T03:24:20;11.20;99.90
12119;DHT22;6123;48.864;9.200;2023-05-19T03:26:46;11.20;99.90
12119;DHT22;6123;48.864;9.200;2023-05-19T03:29:12;11.20;99.90
12119;DHT22;6123;48.864;9.200;2023-05-19T03:31:37;11.20;99.90
12119;DHT22;6123;48.864;9.200;2023-05-19T03:34:03;11.10;99.90
12119;DHT22;6123;48.864;9.200;2023-05-19T03:36:28;11.00;99.90
12119;DHT22;6123;48.864;9.200;2023-05-19T03:38:57;11.00;99.90
12119;DHT22;6123;48.864;9.200;2023-05-19T03:41:23;10.90;99.90
12119;DHT22;6123;48.864;9.200;2023-05-19T03:43:48;10.80;99.90
12119;DHT22;6123;48.864;9.200;2023-05-19T03:46:14;10.80;99.90
12119;DHT22;6123;48.864;9.200;2023-05-19T03:48:39;10.80;99.90
12119;DHT22;6123;48.864;9.200;2023-05-19T03:51:05;10.80;99.90
12119;DHT22;6123;48.864;9.200;2023-05-19T03:53:31;10.80;99.90
12119;DHT22;6123;48.864;9.200;2023-05-19T03:55:57;10.70;99.90
12119;DHT22;6123;48.864;9.200;2023-05-19T03:58:23;10.80;99.90
12119;DHT22;6123;48.864;9.200;2023-05-19T04:00:49;10.80;99.90
12119;DHT22;6123;48.864;9.200;2023-05-19T04:03:15;10.80;99.90
12119;DHT22;6123;48.864;9.200;2023-05-19T04:05:40;10.80;99.90
12119;DHT22;6123;48.864;9.200;2023-05-19T04:08:06;10.70;99.90
12119;DHT22;6123;48.864;9.200;2023-05-19T04:10:31;10.70;99.90
12119;DHT22;6123;48.864;9.200;2023-05-19T04:12:57;10.70;99.90
12119;DHT22;6123;48.864;9.200;2023-05-19T04:15:22;10.60;99.90
12119;DHT22;6123;48.864;9.200;2023-05-19T04:17:48;10.50;99.90
12119;DHT22;6123;48.864;9.200;2023-05-19T04:20:14;10.50;99.90
12119;DHT22;6123;48.864;9.200;2023-05-19T04:22:39;10.50;99.90
12119;DHT22;6123;48.864;9.200;2023-05-19T04:25:06;10.40;99.90
12119;DHT22;6123;48.864;9.200;2023-05-19T04:27:31;10.40;99.90
12119;DHT22;6123;48.864;9.200;2023-05-19T04:30:01;10.40;99.90
12119;DHT22;6123;48.864;9.200;2023-05-19T04:32:28;10.40;99.90
12119;DHT22;6123;48.864;9.200;2023-05-19T04:34:53;10.50;99.90
12119;DHT22;6123;48.864;9.200;2023-05-19T04:37:19;10.60;99.90
12119;DHT22;6123;48.864;9.200;2023-05-19T04:39:44;10.60;99.90
12119;DHT22;6123;48.864;9.200;2023-05-19T04:42:10;10.50;99.90
12119;DHT22;6123;48.864;9.200;2023-05-19T04:44:39;10.60;99.90
12119;DHT22;6123;48.864;9.200;2023-05-19T04:47:06;10.60;99.90
12119;DHT22;6123;48.864;9.200;2023-05-19T04:49:33;10.60;99.90
12119;DHT22;6123;48.864;9.200;2023-05-19T04:52:06;10.60;99.90
12119;DHT22;6123;48.864;9.200;2023-05-19T04:54:35;10.70;99.90
12119;DHT22;6123;48.864;9.200;2023-05-19T04:57:01;10.70;99.90
12119;DHT22;6123;48.864;9.200;2023-05-19T04:59:26;10.70;99.90
12119;DHT22;6123;48.864;9.200;2023-05-19T05:01:52;10.90;99.90
12119;DHT22;6123;48.864;9.200;2023-05-19T05:04:18;10.80;99.90
12119;DHT22;6123;48.864;9.200;2023-05-19T05:06:44;10.90;99.90
12119;DHT22;6123;48.864;9.200;2023-05-19T05:09:13;10.90;99.90
12119;DHT22;6123;48.864;9.200;2023-05-19T05:11:40;10.80;99.90
12119;DHT22;6123;48.864;9.200;2023-05-19T05:14:05;11.10;99.90
12119;DHT22;6123;48.864;9.200;2023-05-19T05:16:31;11.20;99.90
12119;DHT22;6123;48.864;9.200;2023-05-19T05:18:59;11.30;99.90
12119;DHT22;6123;48.864;9.200;2023-05-19T05:21:25;11.20;99.90
12119;DHT22;6123;48.864;9.200;2023-05-19T05:23:51;11.30;99.90
12119;DHT22;6123;48.864;9.200;2023-05-19T05:26:18;11.50;99.90
12119;DHT22;6123;48.864;9.200;2023-05-19T05:28:44;11.40;99.90
12119;DHT22;6123;48.864;9.200;2023-05-19T05:31:09;11.40;99.90
12119;DHT22;6123;48.864;9.200;2023-05-19T05:33:35;11.50;99.90
12119;DHT22;6123;48.864;9.200;2023-05-19T05:36:01;11.60;99.90
12119;DHT22;6123;48.864;9.200;2023-05-19T05:38:27;11.70;99.90
12119;DHT22;6123;48.864;9.200;2023-05-19T05:40:52;11.70;99.90
12119;DHT22;6123;48.864;9.200;2023-05-19T05:43:18;11.60;99.90
12119;DHT22;6123;48.864;9.200;2023-05-19T05:45:43;11.70;99.90
12119;DHT22;6123;48.864;9.200;2023-05-19T05:48:09;12.00;99.90
12119;DHT22;6123;48.864;9.200;2023-05-19T05:50:35;12.00;99.90
12119;DHT22;6123;48.864;9.200;2023-05-19T05:53:02;12.10;99.90
12119;DHT22;6123;48.864;9.200;2023-05-19T05:55:28;12.10;99.90
12119;DHT22;6123;48.864;9.200;2023-05-19T05:57:53;12.00;99.90
12119;DHT22;6123;48.864;9.200;2023-05-19T06:00:21;12.00;99.90
12119;DHT22;6123;48.864;9.200;2023-05-19T06:02:48;12.10;99.90
12119;DHT22;6123;48.864;9.200;2023-05-19T06:05:17;12.10;99.90
12119;DHT22;6123;48.864;9.200;2023-05-19T06:07:42;12.20;99.90
12119;DHT22;6123;48.864;9.200;2023-05-19T06:10:08;12.30;99.90
12119;DHT22;6123;48.864;9.200;2023-05-19T06:12:34;12.40;99.90
12119;DHT22;6123;48.864;9.200;2023-05-19T06:15:03;12.50;99.90
12119;DHT22;6123;48.864;9.200;2023-05-19T06:17:29;12.60;99.90
12119;DHT22;6123;48.864;9.200;2023-05-19T06:19:54;12.60;99.90
12119;DHT22;6123;48.864;9.200;2023-05-19T06:22:20;12.60;99.90
12119;DHT22;6123;48.864;9.200;2023-05-19T06:24:45;12.80;99.90
12119;DHT22;6123;48.864;9.200;2023-05-19T06:27:12;13.10;99.90
12119;DHT22;6123;48.864;9.200;2023-05-19T06:29:38;13.10;99.90
12119;DHT22;6123;48.864;9.200;2023-05-19T06:32:03;13.10;99.90
12119;DHT22;6123;48.864;9.200;2023-05-19T06:34:29;13.60;99.90
12119;DHT22;6123;48.864;9.200;2023-05-19T06:36:55;13.80;99.90
12119;DHT22;6123;48.864;9.200;2023-05-19T06:39:21;13.40;99.90
12119;DHT22;6123;48.864;9.200;2023-05-19T06:41:46;14.30;99.90
12119;DHT22;6123;48.864;9.200;2023-05-19T06:44:12;14.20;99.90
12119;DHT22;6123;48.864;9.200;2023-05-19T06:46:37;14.20;99.90
12119;DHT22;6123;48.864;9.200;2023-05-19T06:49:03;14.30;99.90
12119;DHT22;6123;48.864;9.200;2023-05-19T06:51:28;14.10;99.90
12119;DHT22;6123;48.864;9.200;2023-05-19T06:53:54;14.10;99.90
12119;DHT22;6123;48.864;9.200;2023-05-19T06:56:19;14.10;99.90
12119;DHT22;6123;48.864;9.200;2023-05-19T06:58:47;14.10;99.90
12119;DHT22;6123;48.864;9.200;2023-05-19T07:01:12;14.10;99.90
12119;DHT22;6123;48.864;9.200;2023-05-19T07:03:38;14.00;99.90
12119;DHT22;6123;48.864;9.200;2023-05-19T07:06:03;14.20;99.90
12119;DHT22;6123;48.864;9.200;2023-05-19T07:08:29;14.40;99.90
12119;DHT22;6123;48.864;9.200;2023-05-19T07:10:55;14.50;99.90
12119;DHT22;6123;48.864;9.200;2023-05-19T07:13:21;14.60;99.90
12119;DHT22;6123;48.864;9.200;2023-05-19T07:15:46;14.60;99.90
12119;DHT22;6123;48.864;9.200;2023-05-19T07:18:13;14.60;99.90
12119;DHT22;6123;48.864;9.200;2023-05-19T07:20:39;14.60;99.90
12119;DHT22;6123;48.864;9.200;2023-05-19T07:23:05;14.50;99.90
12119;DHT22;6123;48.864;9.200;2023-05-19T07:25:30;14.50;99.90
12119;DHT22;6123;48.864;9.200;2023-05-19T07:27:57;14.40;99.90
12119;DHT22;6123;48.864;9.200;2023-05-19T07:30:23;14.40;99.90
12119;DHT22;6123;48.864;9.200;2023-05-19T07:32:48;14.40;99.90
12119;DHT22;6123;48.864;9.200;2023-05-19T07:35:14;14.50;99.90
12119;DHT22;6123;48.864;9.200;2023-05-19T07:37:39;14.50;99.90
12119;DHT22;6123;48.864;9.200;2023-05-19T07:40:06;14.60;99.90
12119;DHT22;6123;48.864;9.200;2023-05-19T07:42:33;14.60;99.90
12119;DHT22;6123;48.864;9.200;2023-05-19T07:44:58;14.70;99.90
12119;DHT22;6123;48.864;9.200;2023-05-19T07:47:24;14.70;99.90
12119;DHT22;6123;48.864;9.200;2023-05-19T07:49:49;14.70;99.90
12119;DHT22;6123;48.864;9.200;2023-05-19T07:52:15;14.70;99.90
12119;DHT22;6123;48.864;9.200;2023-05-19T07:54:43;14.70;99.90
12119;DHT22;6123;48.864;9.200;2023-05-19T07:57:08;14.80;99.90
12119;DHT22;6123;48.864;9.200;2023-05-19T07:59:34;15.10;99.90
12119;DHT22;6123;48.864;9.200;2023-05-19T08:02:00;15.20;99.90
12119;DHT22;6123;48.864;9.200;2023-05-19T08:04:25;15.40;99.90
12119;DHT22;6123;48.864;9.200;2023-05-19T08:06:51;15.30;99.90
12119;DHT22;6123;48.864;9.200;2023-05-19T08:09:17;15.40;99.90
12119;DHT22;6123;48.864;9.200;2023-05-19T08:11:43;15.50;99.90
12119;DHT22;6123;48.864;9.200;2023-05-19T08:14:09;15.30;99.90
12119;DHT22;6123;48.864;9.200;2023-05-19T08:16:35;15.20;99.90
12119;DHT22;6123;48.864;9.200;2023-05-19T08:19:00;15.30;99.90
12119;DHT22;6123;48.864;9.200;2023-05-19T08:21:29;15.30;99.90
12119;DHT22;6123;48.864;9.200;2023-05-19T08:23:55;15.20;99.90
12119;DHT22;6123;48.864;9.200;2023-05-19T08:26:21;15.10;99.90
12119;DHT22;6123;48.864;9.200;2023-05-19T08:28:47;15.00;99.90
12119;DHT22;6123;48.864;9.200;2023-05-19T08:31:12;14.90;99.90
12119;DHT22;6123;48.864;9.200;2023-05-19T08:33:38;14.80;99.90
12119;DHT22;6123;48.864;9.200;2023-05-19T08:36:03;14.70;99.90
12119;DHT22;6123;48.864;9.200;2023-05-19T08:38:29;14.90;99.90
12119;DHT22;6123;48.864;9.200;2023-05-19T08:40:56;15.10;99.90
12119;DHT22;6123;48.864;9.200;2023-05-19T08:43:22;15.00;99.90
12119;DHT22;6123;48.864;9.200;2023-05-19T08:45:48;15.00;99.90
12119;DHT22;6123;48.864;9.200;2023-05-19T08:48:16;15.00;99.90
12119;DHT22;6123;48.864;9.200;2023-05-19T08:50:49;15.10;99.90
12119;DHT22;6123;48.864;9.200;2023-05-19T08:53:19;15.10;99.90
12119;DHT22;6123;48.864;9.200;2023-05-19T08:56:21;15.00;99.90
12119;DHT22;6123;48.864;9.200;2023-05-19T08:58:49;14.80;99.90
12119;DHT22;6123;48.864;9.200;2023-05-19T09:01:15;14.90;99.90
12119;DHT22;6123;48.864;9.200;2023-05-19T09:03:43;15.00;99.90
12119;DHT22;6123;48.864;9.200;2023-05-19T09:06:09;15.00;99.90
12119;DHT22;6123;48.864;9.200;2023-05-19T09:08:41;15.00;99.90
12119;DHT22;6123;48.864;9.200;2023-05-19T09:11:10;15.00;99.90
12119;DHT22;6123;48.864;9.200;2023-05-19T09:13:36;15.10;99.90
12119;DHT22;6123;48.864;9.200;2023-05-19T09:16:02;15.10;99.90
12119;DHT22;6123;48.864;9.200;2023-05-19T09:18:28;15.20;99.90
12119;DHT22;6123;48.864;9.200;2023-05-19T09:20:59;15.30;99.90
12119;DHT22;6123;48.864;9.200;2023-05-19T09:23:29;15.20;99.90
12119;DHT22;6123;48.864;9.200;2023-05-19T09:25:55;15.10;99.90
12119;DHT22;6123;48.864;9.200;2023-05-19T09:28:29;15.20;99.90
12119;DHT22;6123;48.864;9.200;2023-05-19T09:33:28;15.20;99.90
12119;DHT22;6123;48.864;9.200;2023-05-19T09:35:57;15.20;99.90
12119;DHT22;6123;48.864;9.200;2023-05-19T09:38:23;15.20;99.90
12119;DHT22;6123;48.864;9.200;2023-05-19T09:40:49;15.30;99.90
12119;DHT22;6123;48.864;9.200;2023-05-19T09:43:16;15.40;99.90
12119;DHT22;6123;48.864;9.200;2023-05-19T09:45:41;15.40;99.90
12119;DHT22;6123;48.864;9.200;2023-05-19T09:48:07;15.60;99.90
12119;DHT22;6123;48.864;9.200;2023-05-19T09:50:33;15.60;99.90
12119;DHT22;6123;48.864;9.200;2023-05-19T09:52:58;15.50;99.90
12119;DHT22;6123;48.864;9.200;2023-05-19T09:55:25;15.50;99.90
12119;DHT22;6123;48.864;9.200;2023-05-19T09:57:54;15.50;99.90
12119;DHT22;6123;48.864;9.200;2023-05-19T10:00:22;15.70;99.90
12119;DHT22;6123;48.864;9.200;2023-05-19T10:02:48;15.60;99.90
12119;DHT22;6123;48.864;9.200;2023-05-19T10:05:16;15.70;99.90
12119;DHT22;6123;48.864;9.200;2023-05-19T10:07:45;15.70;99.90
12119;DHT22;6123;48.864;9.200;2023-05-19T10:10:13;15.90;99.90
12119;DHT22;6123;48.864;9.200;2023-05-19T10:12:40;16.20;99.90
12119;DHT22;6123;48.864;9.200;2023-05-19T10:15:11;16.30;99.90
12119;DHT22;6123;48.864;9.200;2023-05-19T10:17:38;15.90;99.90
12119;DHT22;6123;48.864;9.200;2023-05-19T10:20:07;15.90;99.90
12119;DHT22;6123;48.864;9.200;2023-05-19T10:22:33;16.00;99.90
12119;DHT22;6123;48.864;9.200;2023-05-19T10:24:58;16.00;99.90
12119;DHT22;6123;48.864;9.200;2023-05-19T10:27:25;15.90;99.90
12119;DHT22;6123;48.864;9.200;2023-05-19T10:29:56;15.90;99.90
12119;DHT22;6123;48.864;9.200;2023-05-19T10:32:26;15.80;99.90
12119;DHT22;6123;48.864;9.200;2023-05-19T10:40:32;15.70;99.90
12119;DHT22;6123;48.864;9.200;2023-05-19T10:43:11;15.90;99.90
12119;DHT22;6123;48.864;9.200;2023-05-19T10:45:47;15.90;99.90
12119;DHT22;6123;48.864;9.200;2023-05-19T10:48:14;16.00;99.90
12119;DHT22;6123;48.864;9.200;2023-05-19T10:50:43;16.10;99.90
12119;DHT22;6123;48.864;9.200;2023-05-19T10:53:17;16.30;99.90
12119;DHT22;6123;48.864;9.200;2023-05-19T10:55:44;16.60;99.90
12119;DHT22;6123;48.864;9.200;2023-05-19T10:58:11;16.70;99.90
12119;DHT22;6123;48.864;9.200;2023-05-19T11:00:38;16.60;99.90
12119;DHT22;6123;48.864;9.200;2023-05-19T11:03:16;16.50;99.90
12119;DHT22;6123;48.864;9.200;2023-05-19T11:05:43;16.30;99.90
12119;DHT22;6123;48.864;9.200;2023-05-19T11:08:11;16.40;99.90
12119;DHT22;6123;48.864;9.200;2023-05-19T11:10:37;16.30;99.90
12119;DHT22;6123;48.864;9.200;2023-05-19T11:13:03;16.30;99.90
12119;DHT22;6123;48.864;9.200;2023-05-19T11:15:33;16.20;99.90
12119;DHT22;6123;48.864;9.200;2023-05-19T11:18:00;16.20;99.90
12119;DHT22;6123;48.864;9.200;2023-05-19T11:20:27;16.20;99.90
12119;DHT22;6123;48.864;9.200;2023-05-19T11:23:09;16.30;99.90
12119;DHT22;6123;48.864;9.200;2023-05-19T11:25:45;16.30;99.90
12119;DHT22;6123;48.864;9.200;2023-05-19T11:28:11;16.40;99.90
12119;DHT22;6123;48.864;9.200;2023-05-19T11:30:44;16.50;99.90
12119;DHT22;6123;48.864;9.200;2023-05-19T11:33:09;16.20;99.90
12119;DHT22;6123;48.864;9.200;2023-05-19T11:35:35;16.10;99.90
12119;DHT22;6123;48.864;9.200;2023-05-19T11:38:02;16.20;99.90
12119;DHT22;6123;48.864;9.200;2023-05-19T11:40:28;16.20;99.90
12119;DHT22;6123;48.864;9.200;2023-05-19T11:42:54;16.10;99.90
12119;DHT22;6123;48.864;9.200;2023-05-19T11:45:25;16.20;99.90
12119;DHT22;6123;48.864;9.200;2023-05-19T11:47:53;16.30;99.90
12119;DHT22;6123;48.864;9.200;2023-05-19T11:50:21;16.50;99.90
12119;DHT22;6123;48.864;9.200;2023-05-19T11:52:46;16.40;99.90
12119;DHT22;6123;48.864;9.200;2023-05-19T11:55:16;16.40;99.90
12119;DHT22;6123;48.864;9.200;2023-05-19T11:57:58;16.40;99.90
12119;DHT22;6123;48.864;9.200;2023-05-19T12:00:28;16.60;99.90
12119;DHT22;6123;48.864;9.200;2023-05-19T12:02:55;16.70;99.90
12119;DHT22;6123;48.864;9.200;2023-05-19T12:05:23;16.70;99.90
12119;DHT22;6123;48.864;9.200;2023-05-19T12:07:49;16.70;99.90
12119;DHT22;6123;48.864;9.200;2023-05-19T12:10:23;16.60;99.90
12119;DHT22;6123;48.864;9.200;2023-05-19T12:12:52;16.30;99.90
12119;DHT22;6123;48.864;9.200;2023-05-19T12:15:22;16.40;99.90
12119;DHT22;6123;48.864;9.200;2023-05-19T12:17:58;16.50;99.90
12119;DHT22;6123;48.864;9.200;2023-05-19T12:20:25;16.50;99.90
12119;DHT22;6123;48.864;9.200;2023-05-19T12:22:53;16.50;99.90
12119;DHT22;6123;48.864;9.200;2023-05-19T12:25:19;16.50;99.90
12119;DHT22;6123;48.864;9.200;2023-05-19T12:27:44;16.50;99.90
12119;DHT22;6123;48.864;9.200;2023-05-19T12:30:11;16.50;99.90
12119;DHT22;6123;48.864;9.200;2023-05-19T12:32:39;16.40;99.90
12119;DHT22;6123;48.864;9.200;2023-05-19T12:35:05;16.40;99.90
12119;DHT22;6123;48.864;9.200;2023-05-19T12:37:32;16.40;99.90
12119;DHT22;6123;48.864;9.200;2023-05-19T12:39:58;16.40;99.90
12119;DHT22;6123;48.864;9.200;2023-05-19T12:42:26;16.50;99.90
12119;DHT22;6123;48.864;9.200;2023-05-19T12:44:57;16.50;99.90
12119;DHT22;6123;48.864;9.200;2023-05-19T12:47:30;16.50;99.90
12119;DHT22;6123;48.864;9.200;2023-05-19T12:52:25;16.40;99.90
12119;DHT22;6123;48.864;9.200;2023-05-19T12:55:05;16.40;99.90
12119;DHT22;6123;48.864;9.200;2023-05-19T12:57:33;16.40;99.90
12119;DHT22;6123;48.864;9.200;2023-05-19T13:05:23;16.20;99.90
12119;DHT22;6123;48.864;9.200;2023-05-19T13:07:58;16.00;99.90
12119;DHT22;6123;48.864;9.200;2023-05-19T13:10:24;15.90;99.90
12119;DHT22;6123;48.864;9.200;2023-05-19T13:12:54;15.80;99.90
12119;DHT22;6123;48.864;9.200;2023-05-19T13:15:22;15.90;99.90
12119;DHT22;6123;48.864;9.200;2023-05-19T13:17:49;16.00;99.90
12119;DHT22;6123;48.864;9.200;2023-05-19T13:20:15;16.10;99.90
12119;DHT22;6123;48.864;9.200;2023-05-19T13:22:40;16.10;99.90
12119;DHT22;6123;48.864;9.200;2023-05-19T13:25:07;16.10;99.90
12119;DHT22;6123;48.864;9.200;2023-05-19T13:27:33;16.30;99.90
12119;DHT22;6123;48.864;9.200;2023-05-19T13:29:59;16.30;99.90
12119;DHT22;6123;48.864;9.200;2023-05-19T13:32:25;16.30;99.90
12119;DHT22;6123;48.864;9.200;2023-05-19T13:34:50;16.40;99.90
12119;DHT22;6123;48.864;9.200;2023-05-19T13:37:16;16.30;99.90
12119;DHT22;6123;48.864;9.200;2023-05-19T13:39:42;16.30;99.90
12119;DHT22;6123;48.864;9.200;2023-05-19T13:42:07;16.30;99.90
12119;DHT22;6123;48.864;9.200;2023-05-19T13:44:33;16.30;99.90
12119;DHT22;6123;48.864;9.200;2023-05-19T13:46:58;16.30;99.90
12119;DHT22;6123;48.864;9.200;2023-05-19T13:49:24;16.30;99.90
12119;DHT22;6123;48.864;9.200;2023-05-19T13:51:50;16.40;99.90
12119;DHT22;6123;48.864;9.200;2023-05-19T13:54:16;16.30;99.90
12119;DHT22;6123;48.864;9.200;2023-05-19T13:56:42;16.20;99.90
12119;DHT22;6123;48.864;9.200;2023-05-19T13:59:10;16.30;99.90
12119;DHT22;6123;48.864;9.200;2023-05-19T14:01:35;16.20;99.90
12119;DHT22;6123;48.864;9.200;2023-05-19T14:04:01;16.30;99.90
12119;DHT22;6123;48.864;9.200;2023-05-19T14:06:26;16.40;99.90
12119;DHT22;6123;48.864;9.200;2023-05-19T14:08:52;16.40;99.90
12119;DHT22;6123;48.864;9.200;2023-05-19T14:11:21;16.60;99.90
12119;DHT22;6123;48.864;9.200;2023-05-19T14:13:47;16.70;99.90
12119;DHT22;6123;48.864;9.200;2023-05-19T14:16:14;16.60;99.90
12119;DHT22;6123;48.864;9.200;2023-05-19T14:18:40;16.70;99.90
12119;DHT22;6123;48.864;9.200;2023-05-19T14:21:05;16.40;99.90
12119;DHT22;6123;48.864;9.200;2023-05-19T14:23:31;16.40;99.90
12119;DHT22;6123;48.864;9.200;2023-05-19T14:25:56;16.40;99.90
12119;DHT22;6123;48.864;9.200;2023-05-19T14:28:22;16.30;99.90
12119;DHT22;6123;48.864;9.200;2023-05-19T14:30:48;16.30;99.90
12119;DHT22;6123;48.864;9.200;2023-05-19T14:33:13;16.40;99.90
12119;DHT22;6123;48.864;9.200;2023-05-19T14:35:39;16.60;99.90
12119;DHT22;6123;48.864;9.200;2023-05-19T14:38:05;16.50;99.90
12119;DHT22;6123;48.864;9.200;2023-05-19T14:40:30;16.50;99.90
12119;DHT22;6123;48.864;9.200;2023-05-19T14:42:56;16.40;99.90
12119;DHT22;6123;48.864;9.200;2023-05-19T14:45:21;16.50;99.90
12119;DHT22;6123;48.864;9.200;2023-05-19T14:47:47;16.50;99.90
12119;DHT22;6123;48.864;9.200;2023-05-19T14:50:13;16.40;99.90
12119;DHT22;6123;48.864;9.200;2023-05-19T14:52:38;16.60;99.90
12119;DHT22;6123;48.864;9.200;2023-05-19T14:55:04;16.70;99.90
12119;DHT22;6123;48.864;9.200;2023-05-19T14:57:29;16.60;99.90
12119;DHT22;6123;48.864;9.200;2023-05-19T14:59:55;16.70;99.90
12119;DHT22;6123;48.864;9.200;2023-05-19T15:02:20;16.70;99.90
12119;DHT22;6123;48.864;9.200;2023-05-19T15:04:46;16.60;99.90
12119;DHT22;6123;48.864;9.200;2023-05-19T15:07:12;16.70;99.90
12119;DHT22;6123;48.864;9.200;2023-05-19T15:09:37;16.70;99.90
12119;DHT22;6123;48.864;9.200;2023-05-19T15:12:03;16.60;99.90
12119;DHT22;6123;48.864;9.200;2023-05-19T15:14:28;16.60;99.90
12119;DHT22;6123;48.864;9.200;2023-05-19T15:16:54;16.50;99.90
12119;DHT22;6123;48.864;9.200;2023-05-19T15:19:19;16.50;99.90
12119;DHT22;6123;48.864;9.200;2023-05-19T15:21:45;16.60;99.90
12119;DHT22;6123;48.864;9.200;2023-05-19T15:24:11;16.60;99.90
12119;DHT22;6123;48.864;9.200;2023-05-19T15:26:36;16.70;99.90
12119;DHT22;6123;48.864;9.200;2023-05-19T15:29:02;16.80;99.90
12119;DHT22;6123;48.864;9.200;2023-05-19T15:31:28;16.90;99.90
12119;DHT22;6123;48.864;9.200;2023-05-19T15:33:53;17.00;99.90
12119;DHT22;6123;48.864;9.200;2023-05-19T15:36:19;17.00;99.90
12119;DHT22;6123;48.864;9.200;2023-05-19T15:38:44;17.20;99.90
12119;DHT22;6123;48.864;9.200;2023-05-19T15:41:10;17.10;99.90
12119;DHT22;6123;48.864;9.200;2023-05-19T15:43:36;17.10;99.90
12119;DHT22;6123;48.864;9.200;2023-05-19T15:46:01;17.00;99.90
12119;DHT22;6123;48.864;9.200;2023-05-19T15:48:29;17.10;99.90
12119;DHT22;6123;48.864;9.200;2023-05-19T15:50:57;17.10;99.90
12119;DHT22;6123;48.864;9.200;2023-05-19T15:53:23;17.10;99.90
12119;DHT22;6123;48.864;9.200;2023-05-19T15:55:49;17.00;99.90
12119;DHT22;6123;48.864;9.200;2023-05-19T15:58:15;17.10;99.90
12119;DHT22;6123;48.864;9.200;2023-05-19T16:00:41;17.10;99.90
12119;DHT22;6123;48.864;9.200;2023-05-19T16:03:07;17.10;99.90
12119;DHT22;6123;48.864;9.200;2023-05-19T16:05:33;17.10;99.90
12119;DHT22;6123;48.864;9.200;2023-05-19T16:07:58;17.00;99.90
12119;DHT22;6123;48.864;9.200;2023-05-19T16:10:24;17.10;99.90
12119;DHT22;6123;48.864;9.200;2023-05-19T16:12:49;17.30;99.90
12119;DHT22;6123;48.864;9.200;2023-05-19T16:15:15;17.20;99.90